• Join FlightAware (Why Join?)
  • Login
  • US Flag 
02:45AM EDT


 

Airport Tracker/Info


-or-


 

Live Flight TrackerFlight Track Log ✈ MSR962 ✈ 27-Apr-2013 ✈ HECA / CAI - RJBB / KIX

Flight Track Log - Related Links

Times and Time Zones

All times are in EDT time to prevent confusion due to time zone crossing. See the MSR962 flight status page for this flight to view local times or setup timezone preferences in your user account.

Time Position Orientation Groundspeed Altitude Reporting Facility
EDT Latitude Longitude Course Direction KTS MPH feet Rate Location/Type
05:53PM 30.9211 32.6842 54° Northeast  Level Estimated
05:54PM 30.9932 32.8015 54° Northeast  Level Estimated
05:55PM 31.0651 32.9190 54° Northeast  Level Estimated
05:56PM 31.1369 33.0366 54° Northeast  Level Estimated
05:57PM 31.2086 33.1545 55° Northeast  Level Estimated
05:58PM 31.2802 33.2725 55° Northeast  Level Estimated
05:59PM 31.3517 33.3907 55° Northeast  Level Estimated
06:00PM 31.4231 33.5090 55° Northeast  Level Estimated
06:01PM 31.4944 33.6275 55° Northeast  Level Estimated
06:02PM 31.5655 33.7463 55° Northeast  Level Estimated
06:03PM 31.6366 33.8652 55° Northeast  Level Estimated
06:04PM 31.7076 33.9843 55° Northeast  Level Estimated
06:05PM 31.7784 34.1035 55° Northeast  Level Estimated
06:06PM 31.8491 34.2230 55° Northeast  Level Estimated
06:07PM 31.9197 34.3426 55° Northeast  Level Estimated
06:08PM 31.9902 34.4624 55° Northeast  Level Estimated
06:09PM 32.0606 34.5824 55° Northeast  Level Estimated
06:09PM 32.6460 32.2310 55° Northeast 464 534 31,900  Level FlightAware
06:10PM 32.1309 34.7026 55° Northeast  Level Estimated
06:11PM 32.2010 34.8230 55° Northeast  Level Estimated
06:11PM 32.7510 32.3680 48° Northeast 458 527 32,600  Level FlightAware
06:11PM 32.8070 32.4420 48° Northeast 462 532 33,000 300 Climbing FlightAware
06:12PM 32.8640 32.5150 47° Northeast 458 527 33,000 180 Level FlightAware
06:13PM 32.9330 32.6060 48° Northeast 463 533 33,300 840 Climbing FlightAware
06:13PM 32.9940 32.6870 48° Northeast 459 528 34,300 1,020 Climbing FlightAware
06:14PM 33.0550 32.7670 48° Northeast 464 534 34,800 960 Climbing FlightAware
06:15PM 33.1110 32.8420 48° Northeast 459 528 35,600 1,080 Climbing FlightAware
06:16PM 33.1760 32.9290 48° Northeast 456 525 36,400 840 Climbing FlightAware
06:16PM 33.2330 33.0040 48° Northeast 459 528 36,800 480 Climbing FlightAware
06:17PM 33.2980 33.0900 48° Northeast 466 536 37,100 420 Climbing FlightAware
06:18PM 33.3550 33.1660 48° Northeast 464 534 37,400 420 Climbing FlightAware
06:19PM 33.4740 33.3270 48° Northeast 467 537 38,000 240 Climbing FlightAware
06:20PM 33.5400 33.4150 48° Northeast 465 535 38,000  Level FlightAware
06:20PM 33.5980 33.4930 48° Northeast 464 534 38,000  Level FlightAware
06:21PM 33.6580 33.5740 48° Northeast 468 539 38,000  Level FlightAware
06:22PM 33.7230 33.6620 48° Northeast 468 539 38,000  Level FlightAware
06:23PM 33.7800 33.7400 49° Northeast 467 537 38,000  Level FlightAware
06:23PM 33.8430 33.8250 48° Northeast 466 536 38,000  Level FlightAware
06:24PM 33.9000 33.9040 49° Northeast 465 535 38,000  Level FlightAware
06:25PM 33.9570 33.9820 49° Northeast 464 534 38,000  Level FlightAware
06:25PM 34.0210 34.0700 49° Northeast 462 532 38,000  Level FlightAware
06:26PM 34.0780 34.1480 49° Northeast 460 529 38,000  Level FlightAware
06:27PM 34.1330 34.2240 49° Northeast 455 524 38,000  Level FlightAware
06:27PM 34.1970 34.3120 49° Northeast 454 522 38,000  Level FlightAware
06:28PM 34.2510 34.3870 49° Northeast 451 519 38,000  Level FlightAware
06:29PM 34.3120 34.4710 49° Northeast 451 519 38,000  Level FlightAware
06:30PM 34.3660 34.5470 49° Northeast 449 517 38,000  Level FlightAware
06:30PM 34.4230 34.6250 48° Northeast 450 518 38,000  Level FlightAware
06:31PM 34.4830 34.7090 49° Northeast 450 518 38,000  Level FlightAware
06:32PM 34.5390 34.7870 49° Northeast 450 518 38,000  Level FlightAware
06:32PM 34.5930 34.8630 49° Northeast 453 521 38,000  Level FlightAware
06:33PM 34.6530 34.9480 49° Northeast 450 518 38,000  Level FlightAware
06:34PM 34.7240 35.0470 49° Northeast 452 520 38,000  Level FlightAware
06:35PM 34.7700 35.1120 49° Northeast 452 520 38,000  Level FlightAware
06:35PM 34.8460 35.2200 49° Northeast 453 521 38,000  Level FlightAware
06:36PM 34.8880 35.2800 50° Northeast 453 521 38,000  Level FlightAware
06:37PM 34.9470 35.3620 49° Northeast 453 521 38,000  Level FlightAware
06:37PM 34.9930 35.4270 49° Northeast 453 521 38,000  Level FlightAware
06:38PM 35.0400 35.4930 49° Northeast 453 521 38,000  Level FlightAware
06:39PM 35.0870 35.5590 49° Northeast 453 521 38,000  Level FlightAware
06:39PM 35.1340 35.6240 49° Northeast 453 521 38,000  Level FlightAware
06:40PM 35.1920 35.7070 49° Northeast 453 521 38,000  Level FlightAware
06:41PM 35.2390 35.7720 48° Northeast 453 521 38,000  Level FlightAware
06:42PM 35.2860 35.8380 49° Northeast 453 521 38,000  Level FlightAware
06:42PM 35.3320 35.9040 49° Northeast 453 521 38,000  Level FlightAware
06:43PM 35.3790 35.9700 49° Northeast 453 521 38,000  Level FlightAware
06:44PM 35.4260 36.0360 49° Northeast 453 521 38,000  Level FlightAware
06:44PM 35.4840 36.1190 49° Northeast 453 521 38,000  Level FlightAware
06:45PM 35.5310 36.1850 49° Northeast 453 521 38,000  Level FlightAware
06:48PM 35.6926 36.4883 57° Northeast  Level Estimated
06:49PM 35.7602 36.6160 57° Northeast  Level Estimated
06:50PM 35.8276 36.7439 57° Northeast  Level Estimated
06:51PM 35.8950 36.8719 57° Northeast  Level Estimated
06:52PM 35.9621 37.0002 57° Northeast  Level Estimated
06:53PM 36.0292 37.1288 57° Northeast  Level Estimated
06:54PM 36.0961 37.2575 57° Northeast  Level Estimated
06:55PM 36.1628 37.3865 57° Northeast  Level Estimated
06:56PM 36.2294 37.5156 57° Northeast  Level Estimated
06:57PM 36.2959 37.6450 57° Northeast  Level Estimated
06:58PM 36.3623 37.7746 58° Northeast  Level Estimated
06:59PM 36.4285 37.9045 58° Northeast  Level Estimated
07:00PM 36.4945 38.0345 58° Northeast  Level Estimated
07:01PM 36.5604 38.1648 58° Northeast  Level Estimated
07:02PM 36.6262 38.2953 58° Northeast  Level Estimated
07:03PM 36.6919 38.4260 58° Northeast  Level Estimated
07:04PM 36.7574 38.5570 58° Northeast  Level Estimated
07:05PM 36.8227 38.6881 58° Northeast  Level Estimated
07:06PM 36.8879 38.8195 58° Northeast  Level Estimated
07:07PM 36.9530 38.9511 58° Northeast  Level Estimated
07:08PM 37.0179 39.0830 58° Northeast  Level Estimated
07:09PM 37.0827 39.2151 58° Northeast  Level Estimated
07:10PM 37.1473 39.3474 58° Northeast  Level Estimated
07:11PM 37.2118 39.4799 59° Northeast  Level Estimated
07:12PM 37.2761 39.6126 59° Northeast  Level Estimated
07:13PM 37.3403 39.7456 59° Northeast  Level Estimated
07:14PM 37.4043 39.8788 59° Northeast  Level Estimated
07:15PM 37.4682 40.0122 59° Northeast  Level Estimated
07:16PM 37.5319 40.1459 59° Northeast  Level Estimated
07:17PM 37.5955 40.2798 59° Northeast  Level Estimated
07:18PM 37.6589 40.4139 59° Northeast  Level Estimated
07:19PM 37.7222 40.5482 59° Northeast  Level Estimated
07:20PM 37.7853 40.6828 59° Northeast  Level Estimated
07:21PM 37.8483 40.8176 59° Northeast  Level Estimated
07:22PM 37.9111 40.9526 59° Northeast  Level Estimated
07:23PM 37.9738 41.0879 60° Northeast  Level Estimated
07:24PM 38.0363 41.2234 60° Northeast  Level Estimated
07:25PM 38.0986 41.3591 60° Northeast  Level Estimated
07:26PM 38.1608 41.4950 60° Northeast  Level Estimated
07:27PM 38.2229 41.6312 60° Northeast  Level Estimated
07:28PM 38.2847 41.7677 60° Northeast  Level Estimated
07:29PM 38.3465 41.9043 60° Northeast  Level Estimated
07:30PM 38.4080 42.0412 60° Northeast  Level Estimated
07:31PM 38.4694 42.1783 60° Northeast  Level Estimated
07:32PM 38.5307 42.3157 60° Northeast  Level Estimated
07:33PM 38.5917 42.4533 60° Northeast  Level Estimated
07:34PM 38.6527 42.5911 60° Northeast  Level Estimated
07:35PM 38.7134 42.7291 61° Northeast  Level Estimated
07:36PM 38.7740 42.8674 61° Northeast  Level Estimated
07:37PM 38.8344 43.0059 61° Northeast  Level Estimated
07:38PM 38.8947 43.1447 61° Northeast  Level Estimated
07:39PM 38.9548 43.2837 61° Northeast  Level Estimated
07:40PM 39.0148 43.4229 61° Northeast  Level Estimated
07:41PM 39.0745 43.5624 61° Northeast  Level Estimated
07:42PM 39.1341 43.7021 61° Northeast  Level Estimated
07:43PM 39.1936 43.8420 61° Northeast  Level Estimated
07:44PM 39.2528 43.9822 61° Northeast  Level Estimated
07:45PM 39.3120 44.1226 61° Northeast  Level Estimated
07:46PM 39.3709 44.2633 62° Northeast  Level Estimated
07:47PM 39.4297 44.4041 62° Northeast  Level Estimated
07:48PM 39.4883 44.5453 62° Northeast  Level Estimated
07:49PM 39.5467 44.6866 62° Northeast  Level Estimated
07:50PM 39.6049 44.8282 62° Northeast  Level Estimated
07:51PM 39.6630 44.9701 62° Northeast  Level Estimated
07:52PM 39.7209 45.1121 62° Northeast  Level Estimated
07:53PM 39.7786 45.2545 62° Northeast  Level Estimated
07:54PM 39.8362 45.3970 62° Northeast  Level Estimated
07:55PM 39.8936 45.5398 62° Northeast  Level Estimated
07:56PM 39.9508 45.6828 62° Northeast  Level Estimated
07:57PM 40.0078 45.8261 63° Northeast  Level Estimated
07:58PM 40.0647 45.9696 63° Northeast  Level Estimated
07:59PM 40.1214 46.1134 63° Northeast  Level Estimated
08:00PM 40.1779 46.2574 63° Northeast  Level Estimated
08:01PM 40.2342 46.4016 63° Northeast  Level Estimated
08:02PM 40.2903 46.5461 63° Northeast  Level Estimated
08:03PM 40.3463 46.6908 63° Northeast  Level Estimated
08:04PM 40.4021 46.8357 63° Northeast  Level Estimated
08:05PM 40.4577 46.9809 63° Northeast  Level Estimated
08:06PM 40.5131 47.1263 63° Northeast  Level Estimated
08:07PM 40.5683 47.2720 63° Northeast  Level Estimated
08:08PM 40.6234 47.4179 64° Northeast  Level Estimated
08:09PM 40.6783 47.5641 64° Northeast  Level Estimated
08:10PM 40.7329 47.7104 64° Northeast  Level Estimated
08:11PM 40.7874 47.8571 64° Northeast  Level Estimated
08:12PM 40.8418 48.0039 64° Northeast  Level Estimated
08:13PM 40.8959 48.1511 64° Northeast  Level Estimated
08:14PM 40.9498 48.2984 64° Northeast  Level Estimated
08:15PM 41.0036 48.4460 64° Northeast  Level Estimated
08:16PM 41.0571 48.5938 64° Northeast  Level Estimated
08:17PM 41.1105 48.7419 64° Northeast  Level Estimated
08:18PM 41.1637 48.8902 64° Northeast  Level Estimated
08:19PM 41.2167 49.0388 65° Northeast  Level Estimated
08:20PM 41.2695 49.1875 65° Northeast  Level Estimated
08:21PM 41.3221 49.3366 65° Northeast  Level Estimated
08:22PM 41.3745 49.4859 65° Northeast  Level Estimated
08:23PM 41.4268 49.6354 65° Northeast  Level Estimated
08:24PM 41.4788 49.7851 65° Northeast  Level Estimated
08:25PM 41.5306 49.9351 65° Northeast  Level Estimated
08:26PM 41.5823 50.0853 65° Northeast  Level Estimated
08:27PM 41.6337 50.2358 65° Northeast  Level Estimated
08:28PM 41.6850 50.3865 65° Northeast  Level Estimated
08:29PM 41.7360 50.5375 66° East  Level Estimated
08:30PM 41.7869 50.6886 66° East  Level Estimated
08:31PM 41.8375 50.8401 66° East  Level Estimated
08:32PM 41.8880 50.9917 66° East  Level Estimated
08:33PM 41.9383 51.1437 66° East  Level Estimated
08:34PM 41.9883 51.2958 66° East  Level Estimated
08:35PM 42.0382 51.4482 66° East  Level Estimated
08:36PM 42.0878 51.6008 66° East  Level Estimated
08:37PM 42.1373 51.7537 66° East  Level Estimated
08:38PM 42.1865 51.9068 66° East  Level Estimated
08:39PM 42.2356 52.0602 67° East  Level Estimated
08:40PM 42.2844 52.2137 67° East  Level Estimated
08:41PM 42.3330 52.3675 67° East  Level Estimated
08:42PM 42.3815 52.5216 67° East  Level Estimated
08:43PM 42.4297 52.6759 67° East  Level Estimated
08:44PM 42.4777 52.8304 67° East  Level Estimated
08:45PM 42.5255 52.9852 67° East  Level Estimated
08:46PM 42.5731 53.1402 67° East  Level Estimated
08:47PM 42.6205 53.2955 67° East  Level Estimated
08:48PM 42.6677 53.4509 68° East  Level Estimated
08:49PM 42.7146 53.6067 68° East  Level Estimated
08:50PM 42.7614 53.7626 68° East  Level Estimated
08:51PM 42.8079 53.9188 68° East  Level Estimated
08:52PM 42.8543 54.0752 68° East  Level Estimated
08:53PM 42.9004 54.2318 68° East  Level Estimated
08:54PM 42.9463 54.3887 68° East  Level Estimated
08:55PM 42.9920 54.5459 68° East  Level Estimated
08:56PM 43.0375 54.7032 68° East  Level Estimated
08:57PM 43.0827 54.8608 68° East  Level Estimated
08:58PM 43.1278 55.0186 69° East  Level Estimated
08:59PM 43.1726 55.1767 69° East  Level Estimated
09:00PM 43.2172 55.3349 69° East  Level Estimated
09:01PM 43.2616 55.4935 69° East  Level Estimated
09:02PM 43.3058 55.6522 69° East  Level Estimated
09:03PM 43.3497 55.8112 69° East  Level Estimated
09:04PM 43.3935 55.9704 69° East  Level Estimated
09:05PM 43.4370 56.1298 69° East  Level Estimated
09:06PM 43.4803 56.2895 69° East  Level Estimated
09:07PM 43.5233 56.4493 70° East  Level Estimated
09:08PM 43.5662 56.6095 70° East  Level Estimated
09:09PM 43.6088 56.7698 70° East  Level Estimated
09:10PM 43.6512 56.9304 70° East  Level Estimated
09:11PM 43.6933 57.0912 70° East  Level Estimated
09:12PM 43.7353 57.2522 70° East  Level Estimated
09:13PM 43.7770 57.4135 70° East  Level Estimated
09:14PM 43.8185 57.5749 70° East  Level Estimated
09:15PM 43.8597 57.7366 70° East  Level Estimated
09:16PM 43.9008 57.8986 71° East  Level Estimated
09:17PM 43.9416 58.0607 71° East  Level Estimated
09:18PM 43.9822 58.2231 71° East  Level Estimated
09:19PM 44.0225 58.3857 71° East  Level Estimated
09:20PM 44.0626 58.5485 71° East  Level Estimated
09:21PM 44.1025 58.7115 71° East  Level Estimated
09:22PM 44.1421 58.8747 71° East  Level Estimated
09:23PM 44.1815 59.0382 71° East  Level Estimated
09:24PM 44.2207 59.2019 71° East  Level Estimated
09:25PM 44.2597 59.3658 72° East  Level Estimated
09:26PM 44.2984 59.5299 72° East  Level Estimated
09:27PM 44.3369 59.6943 72° East  Level Estimated
09:28PM 44.3751 59.8588 72° East  Level Estimated
09:29PM 44.4131 60.0236 72° East  Level Estimated
09:30PM 44.4509 60.1886 72° East  Level Estimated
09:31PM 44.4884 60.3538 72° East  Level Estimated
09:32PM 44.5257 60.5192 72° East  Level Estimated
09:33PM 44.5628 60.6848 73° East  Level Estimated
09:34PM 44.5996 60.8506 73° East  Level Estimated
09:35PM 44.6362 61.0166 73° East  Level Estimated
09:36PM 44.6725 61.1829 73° East  Level Estimated
09:37PM 44.7086 61.3493 73° East  Level Estimated
09:38PM 44.7444 61.5160 73° East  Level Estimated
09:39PM 44.7800 61.6828 73° East  Level Estimated
09:40PM 44.8154 61.8499 73° East  Level Estimated
09:41PM 44.8505 62.0172 73° East  Level Estimated
09:42PM 44.8854 62.1847 74° East  Level Estimated
09:43PM 44.9200 62.3523 74° East  Level Estimated
09:44PM 44.9544 62.5202 74° East  Level Estimated
09:45PM 44.9886 62.6883 74° East  Level Estimated
09:46PM 45.0225 62.8566 74° East  Level Estimated
09:47PM 45.0561 63.0251 74° East  Level Estimated
09:48PM 45.0895 63.1937 74° East  Level Estimated
09:49PM 45.1227 63.3626 74° East  Level Estimated
09:50PM 45.1556 63.5317 75° East  Level Estimated
09:51PM 45.1882 63.7010 75° East  Level Estimated
09:52PM 45.2206 63.8704 75° East  Level Estimated
09:53PM 45.2528 64.0401 75° East  Level Estimated
09:54PM 45.2847 64.2099 75° East  Level Estimated
09:55PM 45.3163 64.3799 75° East  Level Estimated
09:56PM 45.3477 64.5501 75° East  Level Estimated
09:57PM 45.3788 64.7206 75° East  Level Estimated
09:58PM 45.4097 64.8912 75° East  Level Estimated
09:59PM 45.4404 65.0619 76° East  Level Estimated
10:00PM 45.4707 65.2329 76° East  Level Estimated
10:01PM 45.5009 65.4041 76° East  Level Estimated
10:02PM 45.5307 65.5754 76° East  Level Estimated
10:03PM 45.5603 65.7469 76° East  Level Estimated
10:04PM 45.5897 65.9186 76° East  Level Estimated
10:05PM 45.6188 66.0905 76° East  Level Estimated
10:06PM 45.6476 66.2625 76° East  Level Estimated
10:07PM 45.6762 66.4348 77° East  Level Estimated
10:08PM 45.7045 66.6072 77° East  Level Estimated
10:09PM 45.7326 66.7797 77° East  Level Estimated
10:10PM 45.7604 66.9525 77° East  Level Estimated
10:11PM 45.7879 67.1254 77° East  Level Estimated
10:12PM 45.8152 67.2985 77° East  Level Estimated
10:13PM 45.8422 67.4718 77° East  Level Estimated
10:14PM 45.8690 67.6452 77° East  Level Estimated
10:15PM 45.8955 67.8188 78° East  Level Estimated
10:16PM 45.9217 67.9925 78° East  Level Estimated
10:17PM 45.9477 68.1665 78° East  Level Estimated
10:18PM 45.9734 68.3406 78° East  Level Estimated
10:19PM 45.9988 68.5148 78° East  Level Estimated
10:20PM 46.0240 68.6892 78° East  Level Estimated
10:21PM 46.0489 68.8638 78° East  Level Estimated
10:22PM 46.0735 69.0385 78° East  Level Estimated
10:23PM 46.0979 69.2134 79° East  Level Estimated
10:24PM 46.1220 69.3884 79° East  Level Estimated
10:25PM 46.1458 69.5636 79° East  Level Estimated
10:26PM 46.1694 69.7389 79° East  Level Estimated
10:27PM 46.1927 69.9144 79° East  Level Estimated
10:28PM 46.2157 70.0900 79° East  Level Estimated
10:29PM 46.2385 70.2658 79° East  Level Estimated
10:30PM 46.2610 70.4417 79° East  Level Estimated
10:31PM 46.2832 70.6178 80° East  Level Estimated
10:32PM 46.3052 70.7940 80° East  Level Estimated
10:33PM 46.3269 70.9704 80° East  Level Estimated
10:34PM 46.3483 71.1468 80° East  Level Estimated
10:35PM 46.3694 71.3235 80° East  Level Estimated
10:36PM 46.3903 71.5002 80° East  Level Estimated
10:37PM 46.4109 71.6771 80° East  Level Estimated
10:38PM 46.4312 71.8541 80° East  Level Estimated
10:39PM 46.4512 72.0313 81° East  Level Estimated
10:40PM 46.4710 72.2086 81° East  Level Estimated
10:41PM 46.4905 72.3860 81° East  Level Estimated
10:42PM 46.5098 72.5636 81° East  Level Estimated
10:43PM 46.5287 72.7412 81° East  Level Estimated
10:44PM 46.5474 72.9190 81° East  Level Estimated
10:45PM 46.5658 73.0969 81° East  Level Estimated
10:46PM 46.5839 73.2749 82° East  Level Estimated
10:47PM 46.6018 73.4531 82° East  Level Estimated
10:48PM 46.6193 73.6314 82° East  Level Estimated
10:49PM 46.6366 73.8098 82° East  Level Estimated
10:50PM 46.6536 73.9882 82° East  Level Estimated
10:51PM 46.6704 74.1668 82° East  Level Estimated
10:52PM 46.6869 74.3456 82° East  Level Estimated
10:53PM 46.7030 74.5244 82° East  Level Estimated
10:54PM 46.7189 74.7033 83° East  Level Estimated
10:55PM 46.7346 74.8823 83° East  Level Estimated
10:56PM 46.7499 75.0615 83° East  Level Estimated
10:57PM 46.7650 75.2407 83° East  Level Estimated
10:58PM 46.7798 75.4201 83° East  Level Estimated
10:59PM 46.7943 75.5995 83° East  Level Estimated
11:00PM 46.8085 75.7790 83° East  Level Estimated
11:01PM 46.8225 75.9587 83° East  Level Estimated
11:02PM 46.8361 76.1384 84° East  Level Estimated
11:03PM 46.8495 76.3182 84° East  Level Estimated
11:04PM 46.8626 76.4981 84° East  Level Estimated
11:05PM 46.8754 76.6781 84° East  Level Estimated
11:06PM 46.8880 76.8581 84° East  Level Estimated
11:07PM 46.9002 77.0383 84° East  Level Estimated
11:08PM 46.9122 77.2185 84° East  Level Estimated
11:09PM 46.9239 77.3988 85° East  Level Estimated
11:10PM 46.9353 77.5792 85° East  Level Estimated
11:11PM 46.9464 77.7597 85° East  Level Estimated
11:12PM 46.9572 77.9402 85° East  Level Estimated
11:13PM 46.9678 78.1208 85° East  Level Estimated
11:14PM 46.9781 78.3015 85° East  Level Estimated
11:15PM 46.9881 78.4823 85° East  Level Estimated
11:16PM 46.9978 78.6631 85° East  Level Estimated
11:17PM 47.0072 78.8440 86° East  Level Estimated
11:18PM 47.0163 79.0249 86° East  Level Estimated
11:19PM 47.0252 79.2059 86° East  Level Estimated
11:20PM 47.0337 79.3870 86° East  Level Estimated
11:21PM 47.0420 79.5681 86° East  Level Estimated
11:22PM 47.0500 79.7493 86° East  Level Estimated
11:23PM 47.0577 79.9305 86° East  Level Estimated
11:24PM 47.0651 80.1118 86° East  Level Estimated
11:25PM 47.0722 80.2932 87° East  Level Estimated
11:26PM 47.0791 80.4745 87° East  Level Estimated
11:27PM 47.0857 80.6560 87° East  Level Estimated
11:28PM 47.0919 80.8374 87° East  Level Estimated
11:29PM 47.0979 81.0189 87° East  Level Estimated
11:30PM 47.1036 81.2005 87° East  Level Estimated
11:31PM 47.1090 81.3821 87° East  Level Estimated
11:32PM 47.1142 81.5637 88° East  Level Estimated
11:33PM 47.1190 81.7454 88° East  Level Estimated
11:34PM 47.1235 81.9270 88° East  Level Estimated
11:35PM 47.1278 82.1088 88° East  Level Estimated
11:36PM 47.1318 82.2905 88° East  Level Estimated
11:37PM 47.1355 82.4723 88° East  Level Estimated
11:38PM 47.1389 82.6541 88° East  Level Estimated
11:39PM 47.1420 82.8359 88° East  Level Estimated
11:40PM 47.1448 83.0178 89° East  Level Estimated
11:41PM 47.1474 83.1996 89° East  Level Estimated
11:42PM 47.1496 83.3815 89° East  Level Estimated
11:43PM 47.1516 83.5634 89° East  Level Estimated
11:44PM 47.1532 83.7453 89° East  Level Estimated
11:45PM 47.1546 83.9272 89° East  Level Estimated
11:46PM 47.1557 84.1091 89° East  Level Estimated
11:47PM 47.1565 84.2911 90° East  Level Estimated
11:48PM 47.1571 84.4730 90° East  Level Estimated
11:49PM 47.1573 84.6549 90° East  Level Estimated
11:50PM 47.1572 84.8369 90° East  Level Estimated
11:51PM 47.1569 85.0188 90° East  Level Estimated
11:52PM 47.1563 85.2007 90° East  Level Estimated
11:53PM 47.1553 85.3827 90° East  Level Estimated
11:54PM 47.1541 85.5646 90° East  Level Estimated
11:55PM 47.1526 85.7465 91° East  Level Estimated
11:56PM 47.1509 85.9284 91° East  Level Estimated
11:57PM 47.1488 86.1103 91° East  Level Estimated
11:58PM 47.1464 86.2922 91° East  Level Estimated
11:59PM 47.1438 86.4740 91° East  Level Estimated
12:00AM 47.1409 86.6558 91° East  Level Estimated
12:01AM 47.1376 86.8376 91° East  Level Estimated
12:02AM 47.1341 87.0194 92° East  Level Estimated
12:03AM 47.1303 87.2012 92° East  Level Estimated
12:04AM 47.1263 87.3829 92° East  Level Estimated
12:05AM 47.1219 87.5647 92° East  Level Estimated
12:06AM 47.1172 87.7463 92° East  Level Estimated
12:07AM 47.1123 87.9280 92° East  Level Estimated
12:08AM 47.1071 88.1096 92° East  Level Estimated
12:09AM 47.1015 88.2912 92° East  Level Estimated
12:10AM 47.0957 88.4727 93° East  Level Estimated
12:11AM 47.0896 88.6542 93° East  Level Estimated
12:12AM 47.0832 88.8356 93° East  Level Estimated
12:13AM 47.0766 89.0171 93° East  Level Estimated
12:14AM 47.0696 89.1984 93° East  Level Estimated
12:15AM 47.0624 89.3797 93° East  Level Estimated
12:16AM 47.0549 89.5610 93° East  Level Estimated
12:17AM 47.0471 89.7422 94° East  Level Estimated
12:18AM 47.0390 89.9234 94° East  Level Estimated
12:19AM 47.0306 90.1045 94° East  Level Estimated
12:20AM 47.0219 90.2855 94° East  Level Estimated
12:21AM 47.0130 90.4665 94° East  Level Estimated
12:22AM 47.0037 90.6474 94° East  Level Estimated
12:23AM 46.9942 90.8283 94° East  Level Estimated
12:24AM 46.9844 91.0090 94° East  Level Estimated
12:25AM 46.9743 91.1898 95° East  Level Estimated
12:26AM 46.9639 91.3704 95° East  Level Estimated
12:27AM 46.9533 91.5510 95° East  Level Estimated
12:28AM 46.9423 91.7315 95° East  Level Estimated
12:29AM 46.9311 91.9120 95° East  Level Estimated
12:30AM 46.9196 92.0923 95° East  Level Estimated
12:31AM 46.9078 92.2726 95° East  Level Estimated
12:32AM 46.8957 92.4528 96° East  Level Estimated
12:33AM 46.8834 92.6329 96° East  Level Estimated
12:34AM 46.8707 92.8130 96° East  Level Estimated
12:35AM 46.8578 92.9929 96° East  Level Estimated
12:36AM 46.8446 93.1728 96° East  Level Estimated
12:37AM 46.8311 93.3526 96° East  Level Estimated
12:38AM 46.8173 93.5322 96° East  Level Estimated
12:39AM 46.8033 93.7118 96° East  Level Estimated
12:40AM 46.7889 93.8913 97° East  Level Estimated
12:41AM 46.7743 94.0707 97° East  Level Estimated
12:42AM 46.7594 94.2500 97° East  Level Estimated
12:43AM 46.7443 94.4292 97° East  Level Estimated
12:44AM 46.7288 94.6083 97° East  Level Estimated
12:45AM 46.7131 94.7873 97° East  Level Estimated
12:46AM 46.6971 94.9662 97° East  Level Estimated
12:47AM 46.6808 95.1450 97° East  Level Estimated
12:48AM 46.6642 95.3237 98° East  Level Estimated
12:49AM 46.6474 95.5022 98° East  Level Estimated
12:50AM 46.6303 95.6807 98° East  Level Estimated
12:51AM 46.6129 95.8590 98° East  Level Estimated
12:52AM 46.5952 96.0372 98° East  Level Estimated
12:53AM 46.5773 96.2153 98° East  Level Estimated
12:54AM 46.5590 96.3933 98° East  Level Estimated
12:55AM 46.5405 96.5712 99° East  Level Estimated
12:56AM 46.5217 96.7489 99° East  Level Estimated
12:57AM 46.5027 96.9266 99° East  Level Estimated
12:58AM 46.4834 97.1041 99° East  Level Estimated
12:59AM 46.4638 97.2814 99° East  Level Estimated
01:00AM 46.4439 97.4587 99° East  Level Estimated
01:01AM 46.4237 97.6358 99° East  Level Estimated
01:02AM 46.4033 97.8128 99° East  Level Estimated
01:03AM 46.3826 97.9896 100° East  Level Estimated
01:04AM 46.3616 98.1663 100° East  Level Estimated
01:05AM 46.3404 98.3429 100° East  Level Estimated
01:06AM 46.3189 98.5193 100° East  Level Estimated
01:07AM 46.2971 98.6956 100° East  Level Estimated
01:08AM 46.2751 98.8718 100° East  Level Estimated
01:09AM 46.2527 99.0478 100° East  Level Estimated
01:10AM 46.2301 99.2237 100° East  Level Estimated
01:11AM 46.2073 99.3994 101° East  Level Estimated
01:12AM 46.1842 99.5750 101° East  Level Estimated
01:13AM 46.1608 99.7504 101° East  Level Estimated
01:14AM 46.1371 99.9257 101° East  Level Estimated
01:15AM 46.1132 100.1008 101° East  Level Estimated
01:16AM 46.0890 100.2758 101° East  Level Estimated
01:17AM 46.0645 100.4506 101° East  Level Estimated
01:18AM 46.0397 100.6253 101° East  Level Estimated
01:19AM 46.0147 100.7998 102° East  Level Estimated
01:20AM 45.9895 100.9741 102° East  Level Estimated
01:21AM 45.9639 101.1483 102° East  Level Estimated
01:22AM 45.9381 101.3223 102° East  Level Estimated
01:23AM 45.9121 101.4962 102° East  Level Estimated
01:24AM 45.8857 101.6699 102° East  Level Estimated
01:25AM 45.8592 101.8434 102° East  Level Estimated
01:26AM 45.8323 102.0168 102° East  Level Estimated
01:27AM 45.8052 102.1900 103° East  Level Estimated
01:28AM 45.7778 102.3630 103° East  Level Estimated
01:29AM 45.7502 102.5359 103° East  Level Estimated
01:30AM 45.7223 102.7086 103° East  Level Estimated
01:31AM 45.6941 102.8811 103° East  Level Estimated
01:32AM 45.6657 103.0534 103° East  Level Estimated
01:33AM 45.6371 103.2256 103° East  Level Estimated
01:34AM 45.6081 103.3976 103° East  Level Estimated
01:35AM 45.5789 103.5694 104° East  Level Estimated
01:36AM 45.5495 103.7410 104° East  Level Estimated
01:37AM 45.5198 103.9125 104° East  Level Estimated
01:38AM 45.4898 104.0837 104° East  Level Estimated
01:39AM 45.4596 104.2548 104° East  Level Estimated
01:40AM 45.4291 104.4257 104° East  Level Estimated
01:41AM 45.3984 104.5964 104° East  Level Estimated
01:42AM 45.3674 104.7670 104° East  Level Estimated
01:43AM 45.3362 104.9373 105° East  Level Estimated
01:44AM 45.3047 105.1074 105° East  Level Estimated
01:45AM 45.2730 105.2774 105° East  Level Estimated
01:46AM 45.2410 105.4472 105° East  Level Estimated
01:47AM 45.2087 105.6168 105° East  Level Estimated
01:48AM 45.1762 105.7861 105° East  Level Estimated
01:49AM 45.1435 105.9553 105° East  Level Estimated
01:50AM 45.1105 106.1243 105° East  Level Estimated
01:51AM 45.0773 106.2931 106° East  Level Estimated
01:52AM 45.0438 106.4617 106° East  Level Estimated
01:53AM 45.0100 106.6301 106° East  Level Estimated
01:54AM 44.9761 106.7984 106° East  Level Estimated
01:55AM 44.9418 106.9664 106° East  Level Estimated
01:56AM 44.9073 107.1342 106° East  Level Estimated
01:57AM 44.8726 107.3018 106° East  Level Estimated
01:58AM 44.8377 107.4692 106° East  Level Estimated
01:59AM 44.8024 107.6364 106° East  Level Estimated
02:00AM 44.7670 107.8034 107° East  Level Estimated
02:01AM 44.7313 107.9702 107° East  Level Estimated
02:02AM 44.6954 108.1367 107° East  Level Estimated
02:03AM 44.6592 108.3031 107° East  Level Estimated
02:04AM 44.6228 108.4693 107° East  Level Estimated
02:05AM 44.5861 108.6353 107° East  Level Estimated
02:06AM 44.5492 108.8010 107° East  Level Estimated
02:07AM 44.5121 108.9666 107° East  Level Estimated
02:08AM 44.4747 109.1319 108° East  Level Estimated
02:09AM 44.4371 109.2970 108° East  Level Estimated
02:10AM 44.3992 109.4619 108° East  Level Estimated
02:11AM 44.3611 109.6266 108° East  Level Estimated
02:12AM 44.3228 109.7911 108° East  Level Estimated
02:13AM 44.2842 109.9553 108° East  Level Estimated
02:14AM 44.2454 110.1193 108° East  Level Estimated
02:15AM 44.2064 110.2832 108° East  Level Estimated
02:16AM 44.1671 110.4468 108° East  Level Estimated
02:17AM 44.1276 110.6102 109° East  Level Estimated
02:18AM 44.0879 110.7733 109° East  Level Estimated
02:19AM 44.0479 110.9363 109° East  Level Estimated
02:20AM 44.0077 111.0990 109° East  Level Estimated
02:21AM 43.9673 111.2615 109° East  Level Estimated
02:22AM 43.9266 111.4238 109° East  Level Estimated
02:23AM 43.8857 111.5859 109° East  Level Estimated
02:24AM 43.8446 111.7477 109° East  Level Estimated
02:25AM 43.8032 111.9093 109° East  Level Estimated
02:26AM 43.7617 112.0707 110° East  Level Estimated
02:27AM 43.7199 112.2319 110° East  Level Estimated
02:28AM 43.6778 112.3928 110° East  Level Estimated
02:29AM 43.6356 112.5536 110° East  Level Estimated
02:30AM 43.5931 112.7141 110° East  Level Estimated
02:31AM 43.5504 112.8743 110° East  Level Estimated
02:32AM 43.5075 113.0343 110° East  Level Estimated
02:33AM 43.4643 113.1942 110° East  Level Estimated
02:34AM 43.4210 113.3537 110° East  Level Estimated
02:35AM 43.3774 113.5131 111° Southeast  Level Estimated
02:36AM 43.3336 113.6722 111° Southeast  Level Estimated
02:36AM 40.3680 115.9730 111° Southeast 527 606 41,100  Level FlightAware
02:37AM 43.2895 113.8311 111° Southeast  Level Estimated
02:37AM 40.3590 116.1550 94° East 521 600 41,100  Level FlightAware
02:38AM 43.2453 113.9898 111° Southeast  Level Estimated
02:38AM 40.3510 116.3220 94° East 521 600 41,100  Level FlightAware
02:39AM 40.3450 116.4440 94° East 524 603 41,100  Level FlightAware
02:40AM 40.3390 116.5680 94° East 524 603 41,100  Level FlightAware
02:40AM 40.3270 116.7080 96° East 530 610 41,100  Level FlightAware
02:41AM 40.3110 116.8270 100° East 529 609 41,100  Level FlightAware
02:42AM 40.2850 116.9370 107° East 527 606 41,100  Level FlightAware
02:42AM 40.2700 117.0440 100° East 527 606 41,100  Level FlightAware
02:43AM 40.2500 117.1770 101° East 527 606 41,100  Level FlightAware
02:44AM 40.2340 117.2840 101° East 527 606 41,100  Level FlightAware
02:44AM 40.2180 117.3900 101° East 527 606 41,100  Level FlightAware
02:45AM 40.2020 117.4970 101° East 527 606 41,100  Level FlightAware
02:46AM 40.1860 117.6030 101° East 527 606 41,100  Level FlightAware
02:47AM 40.1670 117.7360 101° East 527 606 41,100  Level FlightAware
02:47AM 40.1510 117.8430 101° East 527 606 41,100  Level FlightAware
02:48AM 40.1350 117.9490 101° East 527 606 41,100  Level FlightAware
02:49AM 40.1190 118.0560 101° East 527 606 41,100  Level FlightAware
02:49AM 40.1030 118.1620 101° East 527 606 41,100  Level FlightAware
02:50AM 40.0840 118.2950 101° East 527 606 41,100  Level FlightAware
02:51AM 40.0680 118.4010 101° East 527 606 41,100 -60 Level FlightAware
02:53AM 40.0037 118.6654 108° East  Level Estimated
02:54AM 39.9660 118.8191 108° East  Level Estimated
02:55AM 39.9281 118.9727 108° East  Level Estimated
02:56AM 39.8899 119.1262 108° East  Level Estimated
02:57AM 39.8516 119.2794 108° East  Level Estimated
02:58AM 39.8131 119.4325 108° East  Level Estimated
02:59AM 39.7743 119.5854 108° East  Level Estimated
03:00AM 39.7354 119.7382 108° East  Level Estimated
03:01AM 39.6963 119.8908 108° East  Level Estimated
03:02AM 39.6570 120.0432 108° East  Level Estimated
03:03AM 39.6174 120.1954 109° East  Level Estimated
03:04AM 39.5777 120.3474 109° East  Level Estimated
03:05AM 39.5378 120.4993 109° East  Level Estimated
03:06AM 39.4976 120.6510 109° East  Level Estimated
03:07AM 39.4573 120.8026 109° East  Level Estimated
03:08AM 39.4168 120.9539 109° East  Level Estimated
03:09AM 39.3761 121.1051 109° East  Level Estimated
03:10AM 39.3352 121.2561 109° East  Level Estimated
03:11AM 39.2941 121.4069 109° East  Level Estimated
03:12AM 39.2528 121.5575 109° East  Level Estimated
03:13AM 39.2113 121.7080 110° East  Level Estimated
03:14AM 39.1696 121.8583 110° East  Level Estimated
03:15AM 39.1277 122.0084 110° East  Level Estimated
03:16AM 39.0856 122.1583 110° East  Level Estimated
03:17AM 39.0434 122.3081 110° East  Level Estimated
03:18AM 39.0009 122.4576 110° East  Level Estimated
03:19AM 38.9583 122.6070 110° East  Level Estimated
03:20AM 38.9154 122.7562 110° East  Level Estimated
03:21AM 38.8724 122.9053 110° East  Level Estimated
03:22AM 38.8292 123.0541 110° East  Level Estimated
03:23AM 38.7858 123.2028 110° East  Level Estimated
03:24AM 38.7422 123.3513 111° Southeast  Level Estimated
03:25AM 38.6984 123.4996 111° Southeast  Level Estimated
03:26AM 38.6544 123.6477 111° Southeast  Level Estimated
03:27AM 38.6103 123.7957 111° Southeast  Level Estimated
03:28AM 38.5659 123.9434 111° Southeast  Level Estimated
03:29AM 38.5214 124.0910 111° Southeast  Level Estimated
03:30AM 38.4767 124.2384 111° Southeast  Level Estimated
03:31AM 38.4318 124.3856 111° Southeast  Level Estimated
03:32AM 38.3867 124.5326 111° Southeast  Level Estimated
03:33AM 38.3415 124.6795 111° Southeast  Level Estimated
03:34AM 38.2961 124.8261 112° Southeast  Level Estimated
03:35AM 38.2504 124.9726 112° Southeast  Level Estimated
03:36AM 38.2046 125.1189 112° Southeast  Level Estimated
03:37AM 38.1586 125.2650 112° Southeast  Level Estimated
03:38AM 38.1124 125.4109 112° Southeast  Level Estimated
03:39AM 38.0661 125.5567 112° Southeast  Level Estimated
03:40AM 38.0196 125.7022 112° Southeast  Level Estimated
03:40AM 37.2080 126.1010 112° Southeast 512 589 41,000  Level FlightAware
03:41AM 37.9729 125.8476 112° Southeast  Level Estimated
03:41AM 37.2090 126.2120 89° East 511 588 41,000  Level FlightAware
03:42AM 37.2110 126.3500 89° East 511 588 41,000  Level FlightAware
03:43AM 37.2110 126.4780 90° East 509 586 41,000  Level FlightAware
03:43AM 37.2120 126.6000 89° East 509 586 41,000  Level FlightAware
03:44AM 37.2130 126.7330 89° East 509 586 41,000  Level FlightAware
03:45AM 37.2130 126.8520 90° East 509 586 41,000  Level FlightAware
03:45AM 37.2310 126.9720 79° East 503 579 41,000  Level FlightAware
03:46AM 37.2710 127.0890 67° East 501 577 41,000  Level FlightAware
03:47AM 37.3020 127.1990 70° East 506 582 41,000  Level FlightAware
03:48AM 37.3350 127.3260 72° East 506 582 41,000  Level FlightAware
03:48AM 37.3640 127.4370 72° East 504 580 41,000  Level FlightAware
03:49AM 37.3930 127.5490 72° East 504 580 41,000  Level FlightAware
03:50AM 37.4260 127.6730 71° East 503 579 41,000  Level FlightAware
03:50AM 37.4560 127.7880 72° East 503 579 41,000  Level FlightAware
03:51AM 37.4840 127.8980 72° East 503 579 41,000  Level FlightAware
03:52AM 37.5160 128.0220 72° East 504 580 41,000  Level FlightAware
03:52AM 37.5200 128.1400 88° East 513 590 41,000  Level FlightAware
03:53AM 37.4890 128.2520 109° East 509 586 41,000  Level FlightAware
03:54AM 37.4470 128.3780 113° Southeast 511 588 41,000  Level FlightAware
03:54AM 37.4160 128.4790 111° Southeast 511 588 41,000  Level FlightAware
03:55AM 37.3870 128.5730 111° Southeast 511 588 41,000  Level FlightAware
03:56AM 37.3580 128.6680 111° Southeast 511 588 41,000  Level FlightAware
03:56AM 37.3290 128.7620 111° Southeast 511 588 41,000  Level FlightAware
03:57AM 37.2930 128.8800 111° Southeast 511 588 41,000  Level FlightAware
03:58AM 37.2650 128.9750 110° East 511 588 41,000  Level FlightAware
03:59AM 37.2360 129.0690 111° Southeast 511 588 41,000  Level FlightAware
03:59AM 37.2070 129.1630 111° Southeast 511 588 41,000  Level FlightAware
04:00AM 37.1710 129.2810 111° Southeast 511 588 41,000  Level FlightAware
04:01AM 37.1420 129.3750 111° Southeast 511 588 41,000  Level FlightAware
04:01AM 37.1130 129.4690 111° Southeast 511 588 41,000  Level FlightAware
04:02AM 37.0840 129.5630 111° Southeast 511 588 41,000  Level FlightAware
04:03AM 37.0560 129.6570 110° East 511 588 41,000  Level FlightAware
04:04AM 37.0200 129.7750 111° Southeast 511 588 41,000  Level FlightAware
04:06AM 36.9080 130.0307 119° Southeast  Level Estimated
04:07AM 36.8483 130.1661 119° Southeast  Level Estimated
04:08AM 36.7884 130.3014 119° Southeast  Level Estimated
04:09AM 36.7284 130.4364 119° Southeast  Level Estimated
04:10AM 36.6682 130.5712 119° Southeast  Level Estimated
04:10AM 36.4870 131.1190 119° Southeast 532 612 41,000  Level FlightAware
04:11AM 36.4460 131.2300 115° Southeast 533 613 41,000  Level FlightAware
04:12AM 36.3990 131.3570 115° Southeast 537 618 41,000  Level FlightAware
04:12AM 36.3540 131.4660 117° Southeast 534 615 41,000  Level FlightAware
04:13AM 36.3030 131.5700 121° Southeast 534 615 41,000  Level FlightAware
04:14AM 36.2440 131.6870 122° Southeast 530 610 41,000 -480 Level FlightAware
04:15AM 36.1950 131.7920 120° Southeast 523 602 40,400 -1,020 Descending FlightAware
04:15AM 36.1440 131.9080 119° Southeast 516 594 39,600 -1,080 Descending FlightAware
04:16AM 36.0970 132.0130 119° Southeast 516 594 38,900 -1,020 Descending FlightAware
04:17AM 36.0450 132.1300 119° Southeast 510 587 38,200 -960 Descending FlightAware
04:17AM 36.0030 132.2330 117° Southeast 509 586 37,600 -1,020 Descending FlightAware
04:18AM 35.9650 132.3540 111° Southeast 505 581 36,800 -1,020 Descending FlightAware
04:19AM 35.9300 132.4620 112° Southeast 502 578 36,200 -1,020 Descending FlightAware
04:19AM 35.8950 132.5680 112° Southeast 494 568 35,500 -1,020 Descending FlightAware
04:20AM 35.8560 132.6850 112° Southeast 491 565 34,800 -1,020 Descending FlightAware
04:21AM 35.8190 132.7870 114° Southeast 480 552 34,100 -1,080 Descending FlightAware
04:22AM 35.7590 132.8810 128° Southeast 452 520 33,300 -1,740 Descending FlightAware
04:22AM 35.7050 132.9600 130° Southeast 459 528 31,700 -2,640 Descending FlightAware
04:23AM 35.6480 133.0430 130° Southeast 476 548 29,800 -3,180 Descending FlightAware
04:24AM 35.5850 133.1350 130° Southeast 493 567 27,200 -3,300 Descending FlightAware
04:24AM 35.5240 133.2220 131° Southeast 495 570 25,200 -2,100 Descending FlightAware
04:25AM 35.4730 133.2950 131° Southeast 476 548 24,600 -1,080 Descending FlightAware
04:26AM 35.4020 133.3980 130° Southeast 452 520 23,700 -1,020 Descending FlightAware
04:26AM 35.3510 133.4710 131° Southeast 428 493 23,100 -1,020 Descending FlightAware
04:27AM 35.2920 133.5560 130° Southeast 426 490 22,300 -1,020 Descending FlightAware
04:28AM 35.2520 133.6130 131° Southeast 428 493 21,800 -1,020 Descending FlightAware
04:29AM 35.1860 133.7070 131° Southeast 424 488 20,900 -1,080 Descending FlightAware
04:29AM 35.1340 133.7810 131° Southeast 421 484 20,200 -1,380 Descending FlightAware
04:30AM 35.0820 133.8540 131° Southeast 409 471 19,100 -1,620 Descending FlightAware
04:31AM 35.0350 133.9210 131° Southeast 404 465 18,100 -1,560 Descending FlightAware
04:31AM 34.9770 134.0020 131° Southeast 398 458 16,900 -1,620 Descending FlightAware
04:32AM 34.9390 134.0500 134° Southeast 394 453 16,100 -1,200 Descending FlightAware
04:32AM 34.9150 134.0630 156° South 367 422 16,000 -120 Descending FlightAware
04:33AM 34.8470 134.0760 171° South 358 412 16,000  Level FlightAware
04:33AM 34.7800 134.0880 172° South 360 414 16,000 -120 Level FlightAware
04:34AM 34.7060 134.1080 167° South 376 433 15,900 -720 Descending FlightAware
04:35AM 34.6450 134.1500 150° Southeast 373 429 15,000 -1,440 Descending FlightAware
04:36AM 34.5780 134.1960 151° Southeast 355 409 13,900 -1,440 Descending FlightAware
04:36AM 34.5220 134.2380 148° Southeast 351 404 13,000 -1,440 Descending FlightAware
04:37AM 34.4770 134.2970 133° Southeast 346 398 12,000 -1,500 Descending FlightAware
04:38AM 34.4290 134.3600 133° Southeast 340 391 10,900 -1,560 Descending FlightAware
04:38AM 34.3970 134.4020 133° Southeast 349 402 10,100 -960 Descending FlightAware
04:39AM 34.3540 134.4560 134° Southeast 322 371 9,800 -660 Descending FlightAware
04:39AM 34.3300 134.4920 129° Southeast 310 357 9,400 -1,080 Descending FlightAware
04:40AM 34.3250 134.5170 104° East 303 349 9,100 -1,200 Descending FlightAware
04:40AM 34.3210 134.5660 96° East 301 346 8,500 -1,200 Descending FlightAware
04:40AM 34.3180 134.6030 96° East 299 344 8,000 -1,200 Descending FlightAware
04:41AM 34.3150 134.6400 96° East 295 339 7,600 -1,380 Descending FlightAware
04:41AM 34.3300 134.6780 64° Northeast 280 322 7,000 -960 Descending FlightAware
04:42AM 34.3440 134.7040 57° Northeast 281 323 6,900 -300 Descending FlightAware
04:42AM 34.3570 134.7290 58° Northeast 276 318 6,800 -120 Descending FlightAware
04:42AM 34.3780 134.7700 58° Northeast 277 319 6,800  Level FlightAware
04:43AM 34.3960 134.8030 57° Northeast 276 318 6,800 -480 Level FlightAware
04:43AM 34.4170 134.8410 56° Northeast 276 318 6,400 -720 Descending FlightAware
04:44AM 34.4370 134.8800 58° Northeast 268 308 6,100 -600 Descending FlightAware
04:44AM 34.4540 134.9130 58° Northeast 271 312 5,900 -480 Descending FlightAware
04:44AM 34.4650 134.9330 56° Northeast 271 312 5,800 -480 Descending FlightAware
04:45AM 34.4810 134.9640 58° Northeast 271 312 5,600 -600 Descending FlightAware
04:45AM 34.5010 135.0020 57° Northeast 257 296 5,300 -600 Descending FlightAware
04:46AM 34.5200 135.0370 57° Northeast 248 285 5,000 -600 Descending FlightAware
04:46AM 34.5360 135.0680 58° Northeast 239 275 4,800 -480 Descending FlightAware
04:47AM 34.5530 135.1010 58° Northeast 222 255 4,600 -300 Descending FlightAware
04:47AM 34.5680 135.1290 57° Northeast 206 237 4,500 -600 Descending FlightAware
04:48AM 34.5810 135.1550 59° Northeast 200 230 4,100 -780 Descending FlightAware
04:48AM 34.5960 135.1830 57° Northeast 196 226 3,800 -420 Descending FlightAware
04:48AM 34.6030 135.1970 59° Northeast 181 208 3,800 240 Level FlightAware
04:49AM 34.6060 135.2070 70° East 174 200 3,900 -240 Climbing FlightAware
04:49AM 34.6070 135.2210 85° East 173 199 3,700 -840 Descending FlightAware
04:49AM 34.6060 135.2500 92° East 167 192 3,300 -660 Descending FlightAware
04:50AM 34.6050 135.2740 93° East 168 193 3,100 -600 Descending FlightAware
04:50AM 34.6050 135.3020 90° East 160 184 2,800 -600 Descending FlightAware
04:51AM 34.6040 135.3240 93° East 156 180 2,600 -600 Descending FlightAware
04:51AM 34.6000 135.3460 102° East 156 180 2,300 -600 Descending FlightAware
04:51AM 34.5940 135.3520 141° Southeast 155 178 2,200 -540 Descending FlightAware
04:52AM 34.5700 135.3670 153° Southeast 153 176 1,900 -480 Descending FlightAware
04:52AM 34.5610 135.3710 160° South 152 175 1,800 -300 Descending FlightAware
04:52AM 34.5570 135.3720 168° South 152 175 1,800 -240 Level FlightAware
04:53AM 34.5430 135.3680 193° South 152 175 1,700 -720 Descending FlightAware
04:53AM 34.5230 135.3580 202° Southwest 155 178 1,200 -780 Descending FlightAware
04:54AM 34.5060 135.3500 201° Southwest 152 175 1,000 -420 Descending FlightAware
04:54AM 34.5030 135.3490 195° South 151 174 1,000 180 Level FlightAware
04:54AM 34.4910 135.3390 214° Southwest 141 162 1,100  Climbing FlightAware
04:54AM 34.4860 135.3310 233° Southwest 135 155 1,000 -180 Descending FlightAware
04:55AM 34.4760 135.3160 231° Southwest 130 150 1,000 -180 Level FlightAware
04:55AM 34.4600 135.2930 230° Southwest 129 148 800 -300 Descending FlightAware
04:58AM 34.4273 135.2441 231° Southwest  Level Estimated
04:59AM 34.4273 135.2441 158° South  Level Estimated
05:00AM 34.4273 135.2441 158° South  Level Estimated
05:01AM 34.4273 135.2441 158° South  Level Estimated
05:02AM 34.4273 135.2441 158° South  Level Estimated
05:03AM 34.4273 135.2441 158° South  Level Estimated
05:04AM 34.4273 135.2441 158° South  Level Estimated
05:05AM 34.4273 135.2441 158° South  Level Estimated
05:06AM 34.4273 135.2441 158° South  Level Estimated
05:07AM 34.4273 135.2441 158° South  Level Estimated
05:08AM 34.4273 135.2441 158° South  Level Estimated
05:09AM 34.4273 135.2441 158° South  Level Estimated
05:10AM 34.4273 135.2441 158° South  Level Estimated
05:11AM 34.4273 135.2441 158° South  Level Estimated
05:12AM 34.4273 135.2441 158° South  Level Estimated
05:13AM 34.4273 135.2441 158° South  Level Estimated